Mount Jackson, Virginia
Current Conditions -  °F | °C
As of 11:15 AM on Sunday 25 Jan 2015 (Local Time) from K8W2 Reporting Station
Clear Clear  
Wind Chill:   Ceiling: Unl
Heat Index:   Visibility: 10mi
Dew Point: -1°   Wind: 8mph
Humidity: 67%   Direction: 220°SW
Pressure: 29.84"   Gusts: NA
Location:  38.75°N, 78.64°W
Report Text: K8W2 251615Z AUTO 22007KT 10SM CLR 05/M01 A2984 RMK AO1 T00491007
Loading
Personal Weather Stations






























Interactive Weather Map New forecast layout! Learn more

10-Day Weather Forecast

Advertisements
Track Severe Weather on mobile